Skip Navigation Links
NOAA logo - Click to go to the NOAA homepage
NOAA's National Weather Service
Alaska Aviation Weather Unit
  NWS logo - Click to go to the NWS homepage
Left Navbar Graphic     00 AKDT = 08 GMT

   
NOAA is celebrating 200 years of science, service, and stewardship. Visit the NOAA 200th celebration Web site to learn more.
USA.gov is the U.S. Government's official Web portal to all Federal, state and local government Web resources and services.
Facebook
NWS on Facebook

Important Change Regarding the AAWU Web Presence

 

Over the last several months, the AAWU has been working to navigate its webpages to a nationally supported server. Security, as well as other needs, have necessitated the change.  In the process, we have made an effort to enhance the functionality of our website, as well as some of our products. As of June 20, 2017, aawu.arh.noaa.gov will be discontinued. The new AAWU web address is weather.gov/aawu. It is now live and will run in-parallel with the old site until it is discontinued. Please send any feedback or questions regarding the new webpages to nws.ar.aawu.webauthors@noaa.gov.  Thank you for your patience during this time of transition.
AAWU Home :: Display TAF Add Bookmark
METAR PAIW 240258Z AUTO 19009KT 7SM 02/01 A2977 RMK AO2 SLPNO 6////
     T00220011 FZRANO $=

PAIW 240358Z AUTO 19014KT 6SM BR 01/01 A2977 RMK AO2 SLPNO
     T00110006 FZRANO $=

METAR PAIW 240458Z AUTO 20012KT 9SM 02/01 A2976 RMK AO2 SLPNO T00170006
     FZRANO $=

METAR PAIW 240558Z AUTO 21010KT 5SM BR 01/01 A2975 RMK AO2 SLPNO 6////
     T00110006 58007 FZRANO $=

METAR PAIW 240658Z AUTO 07007KT 7SM 01/00 A2975 RMK AO2 SLPNO T00060000
     FZRANO $=

SPECI PAIW 240749Z AUTO 08006KT 2SM BR 01/00 A2975 RMK AO2 VIS 3/4V4
     FZRANO $=


NOAA's National Weather Service
Alaska Aviation Weather Unit
6930 Sand Lake Road
Anchorage, AK 99502-1845
Disclaimer
Credits
Glossary
Privacy Policy
About Us
Career Opportunities
Contact AAWU Internet Services Site last modified: April, 17th 2012